logo tempoitalia

Diretta Meteo Grand Marais Bay, Stati Uniti (USA)lunedì 31 agosto ore 00:56

Mappa
Sereno 17 °C Sereno 24 Ore: T.min 16 T.max 21
Ponente Est Km/h 20.3 Punto di rugiada: 16 °C Umidità: 93% Visibilità: 0 Km
Il sole sorge alle: 06:18 Il sole tramonta alle: 19:44
31 Agosto 2026 00:56 tempo osservato: Sereno Sereno 17 93 1012 vento: Nord E 20.3
30 Agosto 2026 23:56 tempo osservato: Sereno Sereno 18 88 1013 vento: Nord E 14.8
30 Agosto 2026 22:56 tempo osservato: Sereno Sereno 18 88 1014 vento: Nord E 18.5
30 Agosto 2026 21:56 tempo osservato: Sereno Sereno 17 93 1014 vento: Nord E 18.5
30 Agosto 2026 20:56 tempo osservato: Sereno Sereno 18 88 1013 vento: Nord E 14.8
30 Agosto 2026 19:56 tempo osservato: Sereno Sereno 19 82 1013 vento: Nord E 16.7
30 Agosto 2026 18:56 tempo osservato: Sereno Sereno 19 82 1014 vento: Nord E 22.2
30 Agosto 2026 17:56 tempo osservato: Sereno Sereno 19 82 1014 vento: Nord E 16.7
30 Agosto 2026 16:56 tempo osservato: Sereno Sereno 19 88 1014 vento: Nord E 18.5
30 Agosto 2026 15:56 tempo osservato: Sereno Sereno 19 88 1014 vento: Nord E 22.2
30 Agosto 2026 14:56 tempo osservato: Sereno Sereno 21 77 1014 vento: Nord E 20.3
30 Agosto 2026 13:56 tempo osservato: Sereno Sereno 18 88 1014 vento: Nord E 22.2
30 Agosto 2026 12:56 tempo osservato: Sereno Sereno 18 93 1015 vento: Nord E 13
30 Agosto 2026 11:56 tempo osservato: Sereno Sereno 19 88 1015 vento: Nord E 18.5
30 Agosto 2026 10:56 tempo osservato: Sereno Sereno 17 93 1015 vento: Nord E 13
30 Agosto 2026 09:56 tempo osservato: Sereno Sereno 17 93 1015 vento: Nord E 11.1
30 Agosto 2026 08:56 tempo osservato: Sereno Sereno 17 93 1014 vento: Nord E 11.1
30 Agosto 2026 07:56 tempo osservato: Sereno Sereno 17 93 1014 vento: Nord E 13
30 Agosto 2026 06:56 tempo osservato: Sereno Sereno 17 93 1014 vento: Nord E 9.3
30 Agosto 2026 05:56 tempo osservato: Sereno Sereno 17 93 1013 vento: Nord E 18.5
30 Agosto 2026 04:56 tempo osservato: Sereno Sereno 17 93 1013 vento: Nord E 14.8
30 Agosto 2026 03:56 tempo osservato: Sereno Sereno 17 93 1013 vento: Nord N 0
30 Agosto 2026 02:56 tempo osservato: Sereno Sereno 17 93 1012 vento: Nord N 5.5
30 Agosto 2026 01:56 tempo osservato: Sereno Sereno 16 100 1013 vento: Nord N 0